sensor_id;sensor_type;location;lat;lon;timestamp;P1;durP1;ratioP1;P2;durP2;ratioP2
13687;SDS011;6916;51.504;7.416;2022-07-23T00:00:06;10.82;;;7.35;;
13687;SDS011;6916;51.504;7.416;2022-07-23T00:05:10;10.85;;;7.60;;
13687;SDS011;6916;51.504;7.416;2022-07-23T00:10:12;10.20;;;7.38;;
13687;SDS011;6916;51.504;7.416;2022-07-23T00:15:14;11.15;;;7.65;;
13687;SDS011;6916;51.504;7.416;2022-07-23T00:20:17;14.67;;;8.07;;
13687;SDS011;6916;51.504;7.416;2022-07-23T00:25:20;15.35;;;8.07;;
13687;SDS011;6916;51.504;7.416;2022-07-23T00:30:32;18.80;;;8.57;;
13687;SDS011;6916;51.504;7.416;2022-07-23T00:35:36;15.83;;;9.30;;
13687;SDS011;6916;51.504;7.416;2022-07-23T00:40:39;12.17;;;8.63;;
13687;SDS011;6916;51.504;7.416;2022-07-23T00:45:42;14.40;;;8.83;;
13687;SDS011;6916;51.504;7.416;2022-07-23T00:50:45;17.27;;;9.35;;
13687;SDS011;6916;51.504;7.416;2022-07-23T00:55:47;13.53;;;9.67;;
13687;SDS011;6916;51.504;7.416;2022-07-23T01:00:50;11.97;;;9.30;;
13687;SDS011;6916;51.504;7.416;2022-07-23T01:05:53;13.95;;;10.32;;
13687;SDS011;6916;51.504;7.416;2022-07-23T01:10:55;15.33;;;11.23;;
13687;SDS011;6916;51.504;7.416;2022-07-23T01:15:58;13.73;;;10.77;;
13687;SDS011;6916;51.504;7.416;2022-07-23T01:21:00;14.40;;;10.27;;
13687;SDS011;6916;51.504;7.416;2022-07-23T01:26:03;12.87;;;10.67;;
13687;SDS011;6916;51.504;7.416;2022-07-23T01:31:05;15.97;;;11.20;;
13687;SDS011;6916;51.504;7.416;2022-07-23T01:36:10;16.33;;;12.10;;
13687;SDS011;6916;51.504;7.416;2022-07-23T01:41:13;15.85;;;12.10;;
13687;SDS011;6916;51.504;7.416;2022-07-23T01:46:16;16.50;;;12.17;;
13687;SDS011;6916;51.504;7.416;2022-07-23T01:51:22;17.75;;;12.98;;
13687;SDS011;6916;51.504;7.416;2022-07-23T01:56:32;19.13;;;12.17;;
13687;SDS011;6916;51.504;7.416;2022-07-23T02:01:34;20.83;;;13.03;;
13687;SDS011;6916;51.504;7.416;2022-07-23T02:06:37;17.05;;;13.40;;
13687;SDS011;6916;51.504;7.416;2022-07-23T02:11:40;19.73;;;13.83;;
13687;SDS011;6916;51.504;7.416;2022-07-23T02:16:42;23.98;;;14.20;;
13687;SDS011;6916;51.504;7.416;2022-07-23T02:21:45;19.33;;;14.87;;
13687;SDS011;6916;51.504;7.416;2022-07-23T02:26:47;17.88;;;14.73;;
13687;SDS011;6916;51.504;7.416;2022-07-23T02:31:49;22.93;;;14.63;;
13687;SDS011;6916;51.504;7.416;2022-07-23T02:36:52;19.67;;;14.23;;
13687;SDS011;6916;51.504;7.416;2022-07-23T02:41:56;18.87;;;14.30;;
13687;SDS011;6916;51.504;7.416;2022-07-23T02:46:58;18.80;;;13.80;;
13687;SDS011;6916;51.504;7.416;2022-07-23T02:52:01;21.50;;;14.25;;
13687;SDS011;6916;51.504;7.416;2022-07-23T02:57:04;18.08;;;14.60;;
13687;SDS011;6916;51.504;7.416;2022-07-23T03:02:06;18.43;;;14.57;;
13687;SDS011;6916;51.504;7.416;2022-07-23T03:07:09;19.13;;;14.33;;
13687;SDS011;6916;51.504;7.416;2022-07-23T03:12:12;18.17;;;14.67;;
13687;SDS011;6916;51.504;7.416;2022-07-23T03:17:15;15.63;;;12.63;;
13687;SDS011;6916;51.504;7.416;2022-07-23T03:22:18;14.57;;;11.50;;
13687;SDS011;6916;51.504;7.416;2022-07-23T03:27:23;17.87;;;12.87;;
13687;SDS011;6916;51.504;7.416;2022-07-23T03:32:26;15.83;;;11.57;;
13687;SDS011;6916;51.504;7.416;2022-07-23T03:37:30;14.37;;;11.97;;
13687;SDS011;6916;51.504;7.416;2022-07-23T03:42:34;13.57;;;10.52;;
13687;SDS011;6916;51.504;7.416;2022-07-23T03:47:39;17.75;;;12.35;;
13687;SDS011;6916;51.504;7.416;2022-07-23T03:52:41;13.80;;;11.73;;
13687;SDS011;6916;51.504;7.416;2022-07-23T03:57:46;15.20;;;11.40;;
13687;SDS011;6916;51.504;7.416;2022-07-23T04:02:49;14.83;;;11.43;;
13687;SDS011;6916;51.504;7.416;2022-07-23T04:07:52;18.47;;;11.03;;
13687;SDS011;6916;51.504;7.416;2022-07-23T04:12:54;15.23;;;10.87;;
13687;SDS011;6916;51.504;7.416;2022-07-23T04:17:57;12.83;;;10.57;;
13687;SDS011;6916;51.504;7.416;2022-07-23T04:23:08;12.38;;;10.57;;
13687;SDS011;6916;51.504;7.416;2022-07-23T04:28:11;11.95;;;10.07;;
13687;SDS011;6916;51.504;7.416;2022-07-23T04:33:15;11.13;;;9.98;;
13687;SDS011;6916;51.504;7.416;2022-07-23T04:38:20;11.80;;;10.17;;
13687;SDS011;6916;51.504;7.416;2022-07-23T04:43:25;12.87;;;10.33;;
13687;SDS011;6916;51.504;7.416;2022-07-23T04:48:28;12.30;;;10.47;;
13687;SDS011;6916;51.504;7.416;2022-07-23T04:53:41;12.93;;;10.10;;
13687;SDS011;6916;51.504;7.416;2022-07-23T04:58:44;10.87;;;9.63;;
13687;SDS011;6916;51.504;7.416;2022-07-23T05:03:47;11.27;;;10.07;;
13687;SDS011;6916;51.504;7.416;2022-07-23T05:08:50;13.70;;;11.60;;
13687;SDS011;6916;51.504;7.416;2022-07-23T05:13:54;13.10;;;11.47;;
13687;SDS011;6916;51.504;7.416;2022-07-23T05:18:57;13.53;;;11.27;;
13687;SDS011;6916;51.504;7.416;2022-07-23T05:24:00;13.55;;;11.20;;
13687;SDS011;6916;51.504;7.416;2022-07-23T05:29:02;27.77;;;19.43;;
13687;SDS011;6916;51.504;7.416;2022-07-23T05:34:05;27.93;;;20.30;;
13687;SDS011;6916;51.504;7.416;2022-07-23T05:39:09;34.53;;;24.95;;
13687;SDS011;6916;51.504;7.416;2022-07-23T05:44:12;45.63;;;32.50;;
13687;SDS011;6916;51.504;7.416;2022-07-23T05:49:17;42.10;;;32.20;;
13687;SDS011;6916;51.504;7.416;2022-07-23T05:54:41;51.37;;;37.53;;
13687;SDS011;6916;51.504;7.416;2022-07-23T05:59:44;52.93;;;38.23;;
13687;SDS011;6916;51.504;7.416;2022-07-23T06:04:49;54.70;;;39.87;;
13687;SDS011;6916;51.504;7.416;2022-07-23T06:10:00;59.93;;;41.47;;
13687;SDS011;6916;51.504;7.416;2022-07-23T06:15:02;58.67;;;41.23;;
13687;SDS011;6916;51.504;7.416;2022-07-23T06:20:12;55.93;;;42.37;;
13687;SDS011;6916;51.504;7.416;2022-07-23T06:25:15;58.93;;;41.30;;
13687;SDS011;6916;51.504;7.416;2022-07-23T06:30:21;54.27;;;40.83;;
13687;SDS011;6916;51.504;7.416;2022-07-23T06:35:26;60.35;;;41.05;;
13687;SDS011;6916;51.504;7.416;2022-07-23T06:40:28;51.00;;;38.22;;
13687;SDS011;6916;51.504;7.416;2022-07-23T06:45:30;51.97;;;38.93;;
13687;SDS011;6916;51.504;7.416;2022-07-23T06:50:34;50.13;;;37.50;;
13687;SDS011;6916;51.504;7.416;2022-07-23T06:55:36;51.63;;;37.17;;
13687;SDS011;6916;51.504;7.416;2022-07-23T07:00:40;53.27;;;39.73;;
13687;SDS011;6916;51.504;7.416;2022-07-23T07:05:42;45.70;;;34.85;;
13687;SDS011;6916;51.504;7.416;2022-07-23T07:10:45;44.77;;;37.23;;
13687;SDS011;6916;51.504;7.416;2022-07-23T07:15:47;41.22;;;36.03;;
13687;SDS011;6916;51.504;7.416;2022-07-23T07:20:50;40.50;;;35.83;;
13687;SDS011;6916;51.504;7.416;2022-07-23T07:25:52;44.80;;;39.45;;
13687;SDS011;6916;51.504;7.416;2022-07-23T07:30:55;46.13;;;38.80;;
13687;SDS011;6916;51.504;7.416;2022-07-23T07:35:57;45.60;;;40.03;;
13687;SDS011;6916;51.504;7.416;2022-07-23T07:41:00;44.83;;;37.70;;
13687;SDS011;6916;51.504;7.416;2022-07-23T07:46:03;42.88;;;35.08;;
13687;SDS011;6916;51.504;7.416;2022-07-23T07:51:06;41.63;;;35.65;;
13687;SDS011;6916;51.504;7.416;2022-07-23T07:56:11;39.40;;;33.50;;
13687;SDS011;6916;51.504;7.416;2022-07-23T08:01:13;30.20;;;26.97;;
13687;SDS011;6916;51.504;7.416;2022-07-23T08:06:15;28.13;;;25.03;;
13687;SDS011;6916;51.504;7.416;2022-07-23T08:11:18;25.92;;;21.73;;
13687;SDS011;6916;51.504;7.416;2022-07-23T08:16:20;26.48;;;22.13;;
13687;SDS011;6916;51.504;7.416;2022-07-23T08:21:22;24.10;;;21.67;;
13687;SDS011;6916;51.504;7.416;2022-07-23T08:26:25;19.65;;;17.30;;
13687;SDS011;6916;51.504;7.416;2022-07-23T08:31:27;11.48;;;9.75;;
13687;SDS011;6916;51.504;7.416;2022-07-23T08:36:30;10.77;;;9.60;;
13687;SDS011;6916;51.504;7.416;2022-07-23T08:41:34;12.65;;;9.43;;
13687;SDS011;6916;51.504;7.416;2022-07-23T08:46:37;10.45;;;8.48;;
13687;SDS011;6916;51.504;7.416;2022-07-23T08:51:44;10.70;;;7.65;;
13687;SDS011;6916;51.504;7.416;2022-07-23T08:56:47;7.40;;;6.70;;
13687;SDS011;6916;51.504;7.416;2022-07-23T09:01:50;12.40;;;7.05;;
13687;SDS011;6916;51.504;7.416;2022-07-23T09:06:53;10.10;;;6.03;;
13687;SDS011;6916;51.504;7.416;2022-07-23T09:12:05;11.00;;;6.85;;
13687;SDS011;6916;51.504;7.416;2022-07-23T09:17:10;10.93;;;6.10;;
13687;SDS011;6916;51.504;7.416;2022-07-23T09:22:24;6.70;;;5.35;;
13687;SDS011;6916;51.504;7.416;2022-07-23T09:27:53;9.15;;;6.38;;
13687;SDS011;6916;51.504;7.416;2022-07-23T09:33:12;8.95;;;5.43;;
13687;SDS011;6916;51.504;7.416;2022-07-23T09:38:18;6.82;;;5.25;;
13687;SDS011;6916;51.504;7.416;2022-07-23T09:43:27;7.05;;;4.30;;
13687;SDS011;6916;51.504;7.416;2022-07-23T09:48:36;6.20;;;5.13;;
13687;SDS011;6916;51.504;7.416;2022-07-23T09:53:39;5.78;;;5.22;;
13687;SDS011;6916;51.504;7.416;2022-07-23T09:58:41;6.88;;;4.25;;
13687;SDS011;6916;51.504;7.416;2022-07-23T10:03:51;5.35;;;4.70;;
13687;SDS011;6916;51.504;7.416;2022-07-23T10:09:22;6.00;;;5.40;;
13687;SDS011;6916;51.504;7.416;2022-07-23T10:14:45;7.13;;;5.70;;
13687;SDS011;6916;51.504;7.416;2022-07-23T10:19:48;7.50;;;6.03;;
13687;SDS011;6916;51.504;7.416;2022-07-23T10:30:03;7.05;;;5.85;;
13687;SDS011;6916;51.504;7.416;2022-07-23T10:35:18;8.77;;;6.88;;
13687;SDS011;6916;51.504;7.416;2022-07-23T10:40:30;6.95;;;6.25;;
13687;SDS011;6916;51.504;7.416;2022-07-23T10:45:34;8.82;;;5.50;;
13687;SDS011;6916;51.504;7.416;2022-07-23T10:50:38;6.75;;;6.15;;
13687;SDS011;6916;51.504;7.416;2022-07-23T10:55:45;7.10;;;5.47;;
13687;SDS011;6916;51.504;7.416;2022-07-23T11:00:52;7.10;;;6.40;;
13687;SDS011;6916;51.504;7.416;2022-07-23T11:05:55;7.28;;;6.63;;
13687;SDS011;6916;51.504;7.416;2022-07-23T11:32:02;4.45;;;4.05;;
13687;SDS011;6916;51.504;7.416;2022-07-23T11:37:10;5.13;;;4.72;;
13687;SDS011;6916;51.504;7.416;2022-07-23T11:42:14;3.83;;;3.53;;
13687;SDS011;6916;51.504;7.416;2022-07-23T11:47:22;4.47;;;2.90;;
13687;SDS011;6916;51.504;7.416;2022-07-23T11:52:26;5.43;;;3.05;;
13687;SDS011;6916;51.504;7.416;2022-07-23T11:57:30;3.20;;;2.85;;
13687;SDS011;6916;51.504;7.416;2022-07-23T12:02:34;4.10;;;2.58;;
13687;SDS011;6916;51.504;7.416;2022-07-23T12:07:44;4.40;;;2.08;;
13687;SDS011;6916;51.504;7.416;2022-07-23T12:17:54;3.78;;;2.33;;
13687;SDS011;6916;51.504;7.416;2022-07-23T12:22:58;2.50;;;1.88;;
13687;SDS011;6916;51.504;7.416;2022-07-23T12:28:04;3.83;;;1.73;;
13687;SDS011;6916;51.504;7.416;2022-07-23T12:33:09;3.10;;;1.90;;
13687;SDS011;6916;51.504;7.416;2022-07-23T12:38:18;4.07;;;2.15;;
13687;SDS011;6916;51.504;7.416;2022-07-23T12:53:54;1.98;;;1.50;;
13687;SDS011;6916;51.504;7.416;2022-07-23T12:59:10;1.92;;;1.27;;
13687;SDS011;6916;51.504;7.416;2022-07-23T13:04:20;1.35;;;1.25;;
13687;SDS011;6916;51.504;7.416;2022-07-23T13:09:27;5.45;;;1.60;;
13687;SDS011;6916;51.504;7.416;2022-07-23T13:14:37;1.38;;;1.25;;
13687;SDS011;6916;51.504;7.416;2022-07-23T13:19:40;2.80;;;1.30;;
13687;SDS011;6916;51.504;7.416;2022-07-23T13:24:43;30.50;;;21.20;;
13687;SDS011;6916;51.504;7.416;2022-07-23T13:29:49;5.80;;;2.30;;
13687;SDS011;6916;51.504;7.416;2022-07-23T13:34:54;1.90;;;1.35;;
13687;SDS011;6916;51.504;7.416;2022-07-23T13:40:00;5.03;;;1.35;;
13687;SDS011;6916;51.504;7.416;2022-07-23T13:45:13;3.33;;;1.58;;
13687;SDS011;6916;51.504;7.416;2022-07-23T13:50:17;1.33;;;1.13;;
13687;SDS011;6916;51.504;7.416;2022-07-23T13:55:23;3.15;;;1.42;;
13687;SDS011;6916;51.504;7.416;2022-07-23T14:00:28;1.63;;;1.27;;
13687;SDS011;6916;51.504;7.416;2022-07-23T14:05:52;1.88;;;1.17;;
13687;SDS011;6916;51.504;7.416;2022-07-23T14:10:57;2.67;;;1.30;;
13687;SDS011;6916;51.504;7.416;2022-07-23T14:16:00;3.38;;;1.52;;
13687;SDS011;6916;51.504;7.416;2022-07-23T14:21:03;2.13;;;1.48;;
13687;SDS011;6916;51.504;7.416;2022-07-23T14:26:08;1.98;;;1.60;;
13687;SDS011;6916;51.504;7.416;2022-07-23T14:31:10;2.65;;;1.30;;
13687;SDS011;6916;51.504;7.416;2022-07-23T14:36:22;1.55;;;1.20;;
13687;SDS011;6916;51.504;7.416;2022-07-23T14:41:24;2.33;;;1.60;;
13687;SDS011;6916;51.504;7.416;2022-07-23T14:46:29;2.88;;;1.60;;
13687;SDS011;6916;51.504;7.416;2022-07-23T14:51:31;1.45;;;1.15;;
13687;SDS011;6916;51.504;7.416;2022-07-23T14:56:34;3.55;;;1.33;;
13687;SDS011;6916;51.504;7.416;2022-07-23T15:01:38;3.45;;;1.70;;
13687;SDS011;6916;51.504;7.416;2022-07-23T15:06:40;1.40;;;1.30;;
13687;SDS011;6916;51.504;7.416;2022-07-23T15:11:44;2.97;;;1.45;;
13687;SDS011;6916;51.504;7.416;2022-07-23T15:16:48;2.03;;;1.35;;
13687;SDS011;6916;51.504;7.416;2022-07-23T15:21:53;1.60;;;1.50;;
13687;SDS011;6916;51.504;7.416;2022-07-23T15:26:55;2.50;;;1.58;;
13687;SDS011;6916;51.504;7.416;2022-07-23T15:31:58;2.90;;;1.48;;
13687;SDS011;6916;51.504;7.416;2022-07-23T15:37:02;2.80;;;2.03;;
13687;SDS011;6916;51.504;7.416;2022-07-23T15:42:15;2.00;;;1.58;;
13687;SDS011;6916;51.504;7.416;2022-07-23T15:47:18;3.28;;;2.10;;
13687;SDS011;6916;51.504;7.416;2022-07-23T15:52:20;4.35;;;2.17;;
13687;SDS011;6916;51.504;7.416;2022-07-23T15:57:23;2.90;;;1.88;;
13687;SDS011;6916;51.504;7.416;2022-07-23T16:02:25;3.50;;;1.63;;
13687;SDS011;6916;51.504;7.416;2022-07-23T16:07:28;2.25;;;2.05;;
13687;SDS011;6916;51.504;7.416;2022-07-23T16:12:33;3.03;;;2.05;;
13687;SDS011;6916;51.504;7.416;2022-07-23T16:17:35;4.30;;;1.95;;
13687;SDS011;6916;51.504;7.416;2022-07-23T16:22:38;2.15;;;1.67;;
13687;SDS011;6916;51.504;7.416;2022-07-23T16:27:40;2.70;;;2.05;;
13687;SDS011;6916;51.504;7.416;2022-07-23T16:32:42;1.85;;;1.75;;
13687;SDS011;6916;51.504;7.416;2022-07-23T16:37:46;1.90;;;1.48;;
13687;SDS011;6916;51.504;7.416;2022-07-23T16:42:48;2.38;;;1.50;;
13687;SDS011;6916;51.504;7.416;2022-07-23T16:47:51;2.00;;;1.77;;
13687;SDS011;6916;51.504;7.416;2022-07-23T16:52:53;2.72;;;1.67;;
13687;SDS011;6916;51.504;7.416;2022-07-23T16:57:55;5.70;;;2.33;;
13687;SDS011;6916;51.504;7.416;2022-07-23T17:02:58;2.22;;;2.03;;
13687;SDS011;6916;51.504;7.416;2022-07-23T17:08:07;5.97;;;2.10;;
13687;SDS011;6916;51.504;7.416;2022-07-23T17:13:09;2.47;;;1.90;;
13687;SDS011;6916;51.504;7.416;2022-07-23T17:18:12;2.75;;;1.92;;
13687;SDS011;6916;51.504;7.416;2022-07-23T17:23:14;2.50;;;2.03;;
13687;SDS011;6916;51.504;7.416;2022-07-23T17:28:17;1.95;;;1.85;;
13687;SDS011;6916;51.504;7.416;2022-07-23T17:33:20;5.00;;;2.05;;
13687;SDS011;6916;51.504;7.416;2022-07-23T17:38:22;2.67;;;2.13;;
13687;SDS011;6916;51.504;7.416;2022-07-23T17:43:26;2.70;;;1.83;;
13687;SDS011;6916;51.504;7.416;2022-07-23T17:48:28;3.90;;;2.05;;
13687;SDS011;6916;51.504;7.416;2022-07-23T17:53:30;3.35;;;1.60;;
13687;SDS011;6916;51.504;7.416;2022-07-23T17:58:32;1.95;;;1.75;;
13687;SDS011;6916;51.504;7.416;2022-07-23T18:03:35;2.17;;;1.90;;
13687;SDS011;6916;51.504;7.416;2022-07-23T18:08:39;3.33;;;2.53;;
13687;SDS011;6916;51.504;7.416;2022-07-23T18:13:41;2.05;;;1.83;;
13687;SDS011;6916;51.504;7.416;2022-07-23T18:18:44;2.78;;;2.35;;
13687;SDS011;6916;51.504;7.416;2022-07-23T18:23:46;3.00;;;2.20;;
13687;SDS011;6916;51.504;7.416;2022-07-23T18:28:49;4.82;;;2.38;;
13687;SDS011;6916;51.504;7.416;2022-07-23T18:33:52;2.70;;;2.38;;
13687;SDS011;6916;51.504;7.416;2022-07-23T18:38:54;2.78;;;2.53;;
13687;SDS011;6916;51.504;7.416;2022-07-23T18:44:04;3.80;;;2.30;;
13687;SDS011;6916;51.504;7.416;2022-07-23T18:49:06;2.08;;;1.88;;
13687;SDS011;6916;51.504;7.416;2022-07-23T18:54:09;3.85;;;2.20;;
13687;SDS011;6916;51.504;7.416;2022-07-23T18:59:14;5.07;;;2.78;;
13687;SDS011;6916;51.504;7.416;2022-07-23T19:04:24;3.70;;;2.25;;
13687;SDS011;6916;51.504;7.416;2022-07-23T19:09:27;4.35;;;2.58;;
13687;SDS011;6916;51.504;7.416;2022-07-23T19:14:35;3.13;;;2.25;;
13687;SDS011;6916;51.504;7.416;2022-07-23T19:19:38;3.60;;;2.10;;
13687;SDS011;6916;51.504;7.416;2022-07-23T19:24:40;2.83;;;1.90;;
13687;SDS011;6916;51.504;7.416;2022-07-23T19:29:46;2.85;;;2.20;;
13687;SDS011;6916;51.504;7.416;2022-07-23T19:34:48;4.10;;;2.30;;
13687;SDS011;6916;51.504;7.416;2022-07-23T19:39:51;4.85;;;2.10;;
13687;SDS011;6916;51.504;7.416;2022-07-23T19:44:53;3.10;;;2.08;;
13687;SDS011;6916;51.504;7.416;2022-07-23T19:49:55;4.00;;;2.53;;
13687;SDS011;6916;51.504;7.416;2022-07-23T19:54:58;2.70;;;2.50;;
13687;SDS011;6916;51.504;7.416;2022-07-23T20:00:00;4.15;;;2.75;;
13687;SDS011;6916;51.504;7.416;2022-07-23T20:05:05;3.00;;;2.50;;
13687;SDS011;6916;51.504;7.416;2022-07-23T20:10:09;4.38;;;2.63;;
13687;SDS011;6916;51.504;7.416;2022-07-23T20:15:12;3.42;;;2.78;;
13687;SDS011;6916;51.504;7.416;2022-07-23T20:20:14;3.10;;;2.53;;
13687;SDS011;6916;51.504;7.416;2022-07-23T20:25:16;2.78;;;2.50;;
13687;SDS011;6916;51.504;7.416;2022-07-23T20:30:19;6.35;;;3.33;;
13687;SDS011;6916;51.504;7.416;2022-07-23T20:35:25;5.60;;;3.05;;
13687;SDS011;6916;51.504;7.416;2022-07-23T20:40:27;4.25;;;3.67;;
13687;SDS011;6916;51.504;7.416;2022-07-23T20:45:30;4.55;;;3.50;;
13687;SDS011;6916;51.504;7.416;2022-07-23T20:50:33;5.20;;;3.85;;
13687;SDS011;6916;51.504;7.416;2022-07-23T20:55:35;5.70;;;4.40;;
13687;SDS011;6916;51.504;7.416;2022-07-23T21:00:38;7.13;;;5.18;;
13687;SDS011;6916;51.504;7.416;2022-07-23T21:05:43;9.52;;;5.38;;
13687;SDS011;6916;51.504;7.416;2022-07-23T21:10:45;8.30;;;4.40;;
13687;SDS011;6916;51.504;7.416;2022-07-23T21:15:48;5.05;;;3.45;;
13687;SDS011;6916;51.504;7.416;2022-07-23T21:20:50;5.50;;;4.18;;
13687;SDS011;6916;51.504;7.416;2022-07-23T21:26:14;7.65;;;4.82;;
13687;SDS011;6916;51.504;7.416;2022-07-23T21:31:34;4.70;;;3.38;;
13687;SDS011;6916;51.504;7.416;2022-07-23T21:36:36;6.32;;;3.45;;
13687;SDS011;6916;51.504;7.416;2022-07-23T21:41:38;5.80;;;3.80;;
13687;SDS011;6916;51.504;7.416;2022-07-23T21:46:40;6.43;;;3.92;;
13687;SDS011;6916;51.504;7.416;2022-07-23T21:51:44;5.63;;;3.63;;
13687;SDS011;6916;51.504;7.416;2022-07-23T21:56:46;5.13;;;3.10;;
13687;SDS011;6916;51.504;7.416;2022-07-23T22:01:49;6.07;;;3.58;;
13687;SDS011;6916;51.504;7.416;2022-07-23T22:06:51;4.85;;;3.65;;
13687;SDS011;6916;51.504;7.416;2022-07-23T22:11:54;5.32;;;3.58;;
13687;SDS011;6916;51.504;7.416;2022-07-23T22:16:56;5.53;;;3.60;;
13687;SDS011;6916;51.504;7.416;2022-07-23T22:21:58;4.80;;;3.30;;
13687;SDS011;6916;51.504;7.416;2022-07-23T22:27:00;4.55;;;3.65;;
13687;SDS011;6916;51.504;7.416;2022-07-23T22:32:03;3.65;;;3.35;;
13687;SDS011;6916;51.504;7.416;2022-07-23T22:37:05;7.15;;;3.38;;
13687;SDS011;6916;51.504;7.416;2022-07-23T22:42:08;4.78;;;3.70;;
13687;SDS011;6916;51.504;7.416;2022-07-23T22:47:10;4.13;;;3.65;;
13687;SDS011;6916;51.504;7.416;2022-07-23T22:52:13;3.58;;;2.88;;
13687;SDS011;6916;51.504;7.416;2022-07-23T22:57:17;3.50;;;2.50;;
13687;SDS011;6916;51.504;7.416;2022-07-23T23:02:19;5.07;;;3.28;;
13687;SDS011;6916;51.504;7.416;2022-07-23T23:07:22;4.45;;;3.40;;
13687;SDS011;6916;51.504;7.416;2022-07-23T23:12:24;3.05;;;2.75;;
13687;SDS011;6916;51.504;7.416;2022-07-23T23:17:26;6.72;;;3.55;;
13687;SDS011;6916;51.504;7.416;2022-07-23T23:22:29;4.25;;;3.17;;
13687;SDS011;6916;51.504;7.416;2022-07-23T23:27:31;5.40;;;3.35;;
13687;SDS011;6916;51.504;7.416;2022-07-23T23:32:33;3.53;;;3.05;;
13687;SDS011;6916;51.504;7.416;2022-07-23T23:37:36;6.38;;;3.55;;
13687;SDS011;6916;51.504;7.416;2022-07-23T23:42:40;3.50;;;3.20;;
13687;SDS011;6916;51.504;7.416;2022-07-23T23:47:42;5.82;;;3.40;;
13687;SDS011;6916;51.504;7.416;2022-07-23T23:52:44;5.87;;;4.27;;
13687;SDS011;6916;51.504;7.416;2022-07-23T23:57:46;5.18;;;2.85;;
